Time;durP1;ratioP1;P1;durP2;ratioP2;P2;SDS_P1;SDS_P2;PMS_P1;PMS_P2;Temp;Humidity;BMP_temperature;BMP_pressure;BME280_temperature;BME280_humidity;BME280_pressure;Samples;Min_cycle;Max_cycle;Signal;HPM_P1;HPM_P2
2021/06/06 00:00:27;;;;;;;28.47;19.50;;;;;;;18.18;90.62;101322.48;126459;1093;64646;-81
2021/06/06 00:02:55;;;;;;;25.13;17.97;;;;;;;18.16;90.25;101319.18;126542;1093;62951;-81
2021/06/06 00:05:28;;;;;;;29.13;20.57;;;;;;;18.14;90.66;101319.38;126822;1092;63462;-81
2021/06/06 00:07:55;;;;;;;26.97;20.07;;;;;;;18.11;91.21;101310.95;126558;1093;62793;-82
2021/06/06 00:10:22;;;;;;;28.47;18.70;;;;;;;18.10;90.99;101314.64;127128;1093;62997;-82
2021/06/06 00:12:49;;;;;;;23.20;15.00;;;;;;;18.09;91.08;101313.02;127249;1093;62721;-82
2021/06/06 00:15:17;;;;;;;28.40;18.80;;;;;;;18.09;91.08;101304.95;126822;1093;63031;-83
2021/06/06 00:17:47;;;;;;;24.20;16.50;;;;;;;18.08;90.88;101317.53;126922;1093;63028;-80
2021/06/06 00:20:16;;;;;;;26.00;17.57;;;;;;;18.08;90.88;101311.34;127773;1093;62246;-81
2021/06/06 00:22:43;;;;;;;24.90;17.53;;;;;;;18.07;90.80;101313.21;127387;1093;62938;-81
2021/06/06 00:25:13;;;;;;;26.30;17.30;;;;;;;18.07;90.69;101312.39;127000;1093;62942;-81
2021/06/06 00:27:40;;;;;;;29.30;19.30;;;;;;;18.06;90.91;101316.09;126933;1093;64465;-81
2021/06/06 00:30:10;;;;;;;27.27;18.70;;;;;;;18.05;91.18;101317.97;126681;1093;62848;-81
2021/06/06 00:32:37;;;;;;;28.70;19.33;;;;;;;18.04;91.07;101310.11;126851;1092;63025;-81
2021/06/06 00:35:08;;;;;;;30.00;21.30;;;;;;;18.01;91.02;101314.05;126853;1093;62489;-81
2021/06/06 00:37:35;;;;;;;31.17;19.77;;;;;;;17.99;90.90;101312.61;126970;1093;62967;-81
2021/06/06 00:40:04;;;;;;;34.87;24.83;;;;;;;17.95;91.38;101316.74;126896;1092;63478;-81
2021/06/06 00:42:31;;;;;;;32.83;22.10;;;;;;;17.92;91.52;101321.50;126643;1093;63579;-81
2021/06/06 00:44:59;;;;;;;32.80;20.60;;;;;;;17.92;91.33;101316.13;126522;1093;62884;-81
2021/06/06 00:47:29;;;;;;;22.83;15.33;;;;;;;17.92;91.41;101324.18;126793;1092;62252;-81
2021/06/06 00:49:57;;;;;;;31.53;19.53;;;;;;;17.92;91.29;101326.86;126780;1093;62747;-81
2021/06/06 00:52:25;;;;;;;30.13;20.83;;;;;;;17.90;91.50;101330.80;127094;1092;62294;-81
2021/06/06 00:54:54;;;;;;;28.07;19.37;;;;;;;17.86;91.62;101322.32;127081;1093;62829;-81
2021/06/06 00:57:27;;;;;;;35.23;23.40;;;;;;;17.83;91.72;101314.70;126783;1093;63045;-81
2021/06/06 01:00:01;;;;;;;29.60;18.20;;;;;;;17.80;91.90;101314.25;126686;1092;63076;-81
2021/06/06 01:02:28;;;;;;;35.33;22.97;;;;;;;17.77;92.25;101310.13;126916;1092;63061;-81
2021/06/06 01:04:57;;;;;;;30.87;20.97;;;;;;;17.75;92.51;101314.88;128194;1093;62439;-81
2021/06/06 01:07:25;;;;;;;32.80;21.30;;;;;;;17.72;92.90;101316.13;126927;1093;62875;-82
2021/06/06 01:09:52;;;;;;;30.27;20.63;;;;;;;17.66;93.33;101332.20;126525;1093;63103;-81
2021/06/06 01:12:24;;;;;;;31.80;20.47;;;;;;;17.62;93.63;101314.89;126873;1093;63125;-82
2021/06/06 01:14:57;;;;;;;35.83;24.07;;;;;;;17.56;93.92;101315.71;127055;1093;63193;-81
2021/06/06 01:17:44;;;;;;;38.93;24.30;;;;;;;17.52;94.01;101312.60;126851;1093;62945;-81
2021/06/06 01:20:24;;;;;;;27.47;16.33;;;;;;;17.48;94.91;101314.86;127001;1093;62322;-81
2021/06/06 01:23:23;;;;;;;35.50;21.93;;;;;;;17.46;94.80;101308.88;127127;1092;63074;-81
2021/06/06 01:25:54;;;;;;;36.53;23.30;;;;;;;17.43;95.23;101311.98;126985;1093;64456;-80
2021/06/06 01:28:43;;;;;;;39.53;24.83;;;;;;;17.42;94.65;101304.95;126888;1093;62870;-81
2021/06/06 01:31:14;;;;;;;44.77;26.83;;;;;;;17.43;94.64;101311.98;126784;1092;63173;-81
2021/06/06 01:33:54;;;;;;;36.80;23.57;;;;;;;17.44;94.67;101313.62;126867;1093;63617;-81
2021/06/06 01:36:30;;;;;;;30.23;20.03;;;;;;;17.45;94.36;101309.92;126961;1093;62875;-81
2021/06/06 01:38:59;;;;;;;31.43;20.10;;;;;;;17.46;94.94;101305.38;126820;1093;63067;-82
2021/06/06 01:41:35;;;;;;;39.93;24.10;;;;;;;17.46;94.54;101303.52;126791;1093;62935;-81
2021/06/06 01:44:08;;;;;;;41.77;23.43;;;;;;;17.50;94.53;101311.98;126488;1092;63117;-80
2021/06/06 01:46:42;;;;;;;38.40;24.77;;;;;;;17.49;94.57;101308.48;127039;1093;62294;-82
2021/06/06 01:49:13;;;;;;;32.20;18.75;;;;;;;17.48;94.82;101320.23;126805;1093;62263;-80
2021/06/06 01:51:46;;;;;;;45.23;26.50;;;;;;;17.47;94.42;101313.22;126831;1093;62352;-81
2021/06/06 01:54:18;;;;;;;41.20;25.25;;;;;;;17.44;94.88;101318.98;127379;1093;63009;-80
2021/06/06 01:56:49;;;;;;;46.53;27.90;;;;;;;17.40;94.92;101311.56;126704;1092;62223;-80
2021/06/06 01:59:45;;;;;;;49.13;27.37;;;;;;;17.34;95.03;101313.22;126831;1092;62871;-79
2021/06/06 02:02:13;;;;;;;56.17;31.80;;;;;;;17.28;95.29;101317.53;126790;1093;63274;-80
2021/06/06 02:04:41;;;;;;;54.50;30.97;;;;;;;17.25;94.97;101314.42;126828;1093;62107;-78
2021/06/06 02:07:24;;;;;;;46.40;26.67;;;;;;;17.25;95.36;101311.74;126690;1093;62996;-80
2021/06/06 02:10:10;;;;;;;48.23;25.90;;;;;;;17.24;95.33;101315.47;126652;1093;62952;-80
2021/06/06 02:12:41;;;;;;;35.17;20.00;;;;;;;17.23;95.79;101313.80;126857;1093;62193;-80
2021/06/06 02:15:19;;;;;;;52.20;27.23;;;;;;;17.22;95.13;101320.20;126962;1093;64391;-80
2021/06/06 02:17:46;;;;;;;34.50;19.20;;;;;;;17.20;95.36;101316.91;126776;1093;64095;-79
2021/06/06 02:20:14;;;;;;;55.90;30.57;;;;;;;17.19;95.54;101316.09;126708;1093;63009;-79
2021/06/06 02:22:41;;;;;;;51.03;26.43;;;;;;;17.18;95.52;101327.01;126848;1093;62484;-79
2021/06/06 02:25:09;;;;;;;45.00;24.03;;;;;;;17.17;95.41;101323.51;126537;1093;63485;-79
2021/06/06 02:27:41;;;;;;;42.23;24.30;;;;;;;17.17;95.65;101328.02;126665;1093;62730;-80
2021/06/06 02:30:16;;;;;;;49.37;25.67;;;;;;;17.17;95.34;101323.51;126835;1093;63006;-79
2021/06/06 02:32:46;;;;;;;40.13;21.33;;;;;;;17.17;95.45;101322.66;126552;1093;62724;-79
2021/06/06 02:35:25;;;;;;;48.03;28.37;;;;;;;17.18;95.11;101329.69;126641;1093;62884;-79
2021/06/06 02:38:08;;;;;;;43.83;26.90;;;;;;;17.19;95.20;101323.28;126924;1093;63031;-79
2021/06/06 02:40:45;;;;;;;56.33;32.73;;;;;;;17.20;94.84;101327.63;126702;1093;62173;-80
2021/06/06 02:43:21;;;;;;;36.43;20.93;;;;;;;17.21;94.86;101318.54;126548;1093;62974;-79
2021/06/06 02:45:51;;;;;;;40.23;23.40;;;;;;;17.23;94.47;101321.84;126596;1093;64566;-78
2021/06/06 02:48:29;;;;;;;51.93;26.70;;;;;;;17.24;94.45;101326.20;127015;1092;62279;-80
2021/06/06 02:51:00;;;;;;;52.40;27.83;;;;;;;17.24;94.40;101321.66;126529;1093;62105;-78
2021/06/06 02:53:33;;;;;;;37.50;21.60;;;;;;;17.26;93.91;101324.14;127488;1093;62244;-79
2021/06/06 02:56:13;;;;;;;39.97;22.40;;;;;;;17.27;93.71;101323.09;126870;1093;62254;-80
2021/06/06 02:58:50;;;;;;;34.60;19.13;;;;;;;17.28;93.42;101325.58;126464;1093;63497;-80
2021/06/06 03:01:23;;;;;;;41.30;22.33;;;;;;;17.26;93.10;101329.50;126724;1092;63073;-80
2021/06/06 03:03:52;;;;;;;34.93;21.17;;;;;;;17.26;92.69;101324.95;127001;1092;62184;-81
2021/06/06 03:06:26;;;;;;;33.53;20.47;;;;;;;17.24;92.63;101328.88;127195;1093;62740;-81
2021/06/06 03:08:53;;;;;;;33.50;19.53;;;;;;;17.22;92.49;101326.39;127164;1092;62232;-80
2021/06/06 03:11:20;;;;;;;37.00;21.10;;;;;;;17.21;92.43;101329.27;127027;1093;62132;-80
2021/06/06 03:13:54;;;;;;;32.10;18.67;;;;;;;17.20;92.47;101322.27;127030;1093;62237;-80
2021/06/06 03:16:22;;;;;;;40.50;25.70;;;;;;;17.20;92.46;101332.99;126998;1093;62238;-80
2021/06/06 03:18:54;;;;;;;34.20;21.13;;;;;;;17.19;92.45;101331.33;126841;1092;62986;-80
2021/06/06 03:21:31;;;;;;;39.33;23.03;;;;;;;17.19;92.48;101325.96;126921;1093;62566;-79
2021/06/06 03:24:02;;;;;;;31.33;20.70;;;;;;;17.18;92.62;101324.33;126594;1093;62993;-80
2021/06/06 03:26:33;;;;;;;38.33;21.23;;;;;;;17.18;92.46;101330.50;126774;1093;64284;-81
2021/06/06 03:29:04;;;;;;;41.30;25.33;;;;;;;17.20;92.56;101322.27;127038;1093;62415;-81
2021/06/06 03:31:36;;;;;;;32.83;20.50;;;;;;;17.20;92.62;101335.67;126889;1093;63510;-79
2021/06/06 03:34:05;;;;;;;39.27;23.67;;;;;;;17.20;92.30;101332.99;127003;1093;62157;-80
2021/06/06 03:36:36;;;;;;;30.90;20.23;;;;;;;17.19;92.23;101339.37;126673;1093;62702;-80
2021/06/06 03:39:11;;;;;;;34.00;20.50;;;;;;;17.21;92.44;101337.31;127034;1093;62782;-81
2021/06/06 03:41:38;;;;;;;39.17;24.73;;;;;;;17.21;92.40;101332.77;126781;1093;63013;-82
2021/06/06 03:44:06;;;;;;;30.20;16.53;;;;;;;17.19;92.87;101336.69;126755;1092;62897;-81
2021/06/06 03:46:33;;;;;;;35.30;19.40;;;;;;;17.12;92.85;101336.67;127292;1092;62309;-81
2021/06/06 03:49:01;;;;;;;43.40;22.97;;;;;;;17.07;92.98;101339.97;126564;1093;63556;-80
2021/06/06 03:51:29;;;;;;;40.30;22.83;;;;;;;17.03;93.30;101337.89;126729;1093;63048;-80
2021/06/06 03:53:56;;;;;;;46.73;25.47;;;;;;;16.97;93.57;101344.88;126895;1093;63135;-81
2021/06/06 03:56:24;;;;;;;36.87;22.27;;;;;;;16.95;93.56;101335.39;127909;1092;62476;-80
2021/06/06 03:58:52;;;;;;;36.07;19.27;;;;;;;16.91;94.00;101345.68;126739;1093;62288;-80
2021/06/06 04:01:19;;;;;;;41.37;24.00;;;;;;;16.90;93.67;101350.22;126812;1092;62954;-80
2021/06/06 04:03:47;;;;;;;40.10;24.17;;;;;;;16.89;93.48;101353.09;126427;1093;62939;-80
2021/06/06 04:06:15;;;;;;;38.90;23.97;;;;;;;16.89;93.34;101347.73;126711;1093;63008;-80
2021/06/06 04:08:42;;;;;;;31.43;21.13;;;;;;;16.87;93.06;101349.78;126823;1093;62213;-79
2021/06/06 04:11:09;;;;;;;30.53;20.70;;;;;;;16.89;93.26;101353.09;126741;1093;63006;-80
2021/06/06 04:13:36;;;;;;;32.27;19.27;;;;;;;16.87;93.14;101356.00;126643;1092;62238;-80
2021/06/06 04:16:05;;;;;;;30.80;18.47;;;;;;;16.86;92.46;101358.87;126420;1092;63016;-79
2021/06/06 04:18:33;;;;;;;26.40;17.43;;;;;;;16.82;92.05;101352.25;126314;1093;63039;-79
2021/06/06 04:21:04;;;;;;;24.00;14.70;;;;;;;16.82;91.95;101352.25;126562;1093;62964;-80
2021/06/06 04:23:31;;;;;;;27.67;18.33;;;;;;;16.81;91.77;101355.94;126497;1093;62352;-80
2021/06/06 04:25:58;;;;;;;27.83;16.93;;;;;;;16.80;91.03;101348.91;126446;1093;63109;-80
2021/06/06 04:28:25;;;;;;;24.40;16.70;;;;;;;16.78;90.30;101356.33;126568;1093;62283;-79
2021/06/06 04:30:53;;;;;;;32.83;18.33;;;;;;;16.77;90.13;101357.36;126812;1093;62272;-79
2021/06/06 04:33:21;;;;;;;25.43;16.80;;;;;;;16.74;90.06;101357.75;126742;1093;62799;-80
2021/06/06 04:35:49;;;;;;;27.73;17.80;;;;;;;16.73;89.98;101358.78;126750;1092;63063;-79
2021/06/06 04:38:20;;;;;;;29.50;20.00;;;;;;;16.70;89.88;101368.02;126789;1093;62851;-79
2021/06/06 04:40:49;;;;;;;24.20;13.53;;;;;;;16.65;90.01;101349.88;126715;1093;62810;-80
2021/06/06 04:43:16;;;;;;;29.10;19.03;;;;;;;16.62;90.35;101366.36;126614;1093;63054;-80
2021/06/06 04:45:43;;;;;;;27.37;17.73;;;;;;;16.57;90.63;101360.75;126772;1092;62803;-80
2021/06/06 04:48:18;;;;;;;28.33;18.10;;;;;;;16.50;91.52;101363.40;126666;1093;63041;-80
2021/06/06 04:50:46;;;;;;;30.93;18.73;;;;;;;16.45;91.81;101360.50;126793;1092;62175;-81
2021/06/06 04:53:13;;;;;;;36.67;20.10;;;;;;;16.40;92.17;101370.14;126658;1093;62754;-80
2021/06/06 04:55:41;;;;;;;29.60;17.80;;;;;;;16.35;92.52;101361.88;126939;1092;64440;-80
2021/06/06 04:58:13;;;;;;;30.87;19.80;;;;;;;16.30;93.18;101357.94;126655;1093;62343;-80
2021/06/06 05:00:41;;;;;;;34.50;20.00;;;;;;;16.26;93.17;101367.39;126665;1093;63165;-80
2021/06/06 05:03:10;;;;;;;38.50;21.47;;;;;;;16.26;92.90;101359.35;126564;1093;63044;-79
2021/06/06 05:05:38;;;;;;;26.50;15.73;;;;;;;16.26;92.80;101371.92;126518;1092;63006;-79
2021/06/06 05:08:06;;;;;;;28.87;18.30;;;;;;;16.29;92.76;101369.66;126749;1093;63031;-80
2021/06/06 05:10:37;;;;;;;29.30;18.53;;;;;;;16.33;92.49;101371.95;126213;1092;62971;-80
2021/06/06 05:13:05;;;;;;;28.17;16.27;;;;;;;16.35;92.42;101372.59;126476;1093;62167;-80
2021/06/06 05:15:33;;;;;;;34.27;18.40;;;;;;;16.39;92.07;101374.67;126436;1093;62904;-80
2021/06/06 05:18:00;;;;;;;29.67;17.40;;;;;;;16.42;92.06;101368.09;126673;1093;62939;-80
2021/06/06 05:20:32;;;;;;;33.37;20.63;;;;;;;16.46;91.56;101366.67;126566;1093;62300;-80
2021/06/06 05:23:00;;;;;;;31.73;18.97;;;;;;;16.49;91.28;101366.27;126661;1093;63006;-79
2021/06/06 05:25:27;;;;;;;33.13;20.33;;;;;;;16.51;91.31;101372.25;126633;1093;62475;-79
2021/06/06 05:27:54;;;;;;;28.47;16.40;;;;;;;16.55;91.14;101368.16;126720;1093;62764;-80
2021/06/06 05:30:26;;;;;;;29.67;18.63;;;;;;;16.59;90.99;101366.73;126506;1093;63012;-80
2021/06/06 05:32:54;;;;;;;40.13;23.20;;;;;;;16.63;90.77;101370.67;126634;1093;62948;-79
2021/06/06 05:35:27;;;;;;;38.27;23.80;;;;;;;16.68;90.57;101368.25;126724;1093;62928;-79
2021/06/06 05:37:54;;;;;;;33.33;19.50;;;;;;;16.73;90.31;101374.86;126526;1093;62855;-79
2021/06/06 05:40:25;;;;;;;33.27;19.40;;;;;;;16.77;89.87;101371.58;126560;1092;62971;-79
2021/06/06 05:42:55;;;;;;;36.33;21.13;;;;;;;16.81;89.86;101382.73;126612;1092;62897;-79
2021/06/06 05:45:24;;;;;;;34.13;19.33;;;;;;;16.84;89.68;101382.36;126865;1093;62951;-80
2021/06/06 05:47:52;;;;;;;29.83;19.00;;;;;;;16.85;89.50;101384.00;126818;1093;62981;-82
2021/06/06 05:50:24;;;;;;;22.90;14.17;;;;;;;16.91;89.33;101385.88;126723;1093;63008;-81
2021/06/06 05:52:51;;;;;;;37.40;23.77;;;;;;;16.90;89.30;101384.24;126717;1093;63012;-81
2021/06/06 05:55:19;;;;;;;22.53;14.53;;;;;;;16.90;89.29;101392.28;126603;1093;62906;-81
2021/06/06 05:57:51;;;;;;;32.57;18.30;;;;;;;16.87;89.22;101387.30;126625;1093;62038;-80
2021/06/06 06:00:23;;;;;;;25.73;14.77;;;;;;;16.86;89.25;101401.74;126713;1092;63316;-81
2021/06/06 06:02:50;;;;;;;22.87;13.70;;;;;;;16.85;89.33;101389.35;126618;1093;63253;-81
2021/06/06 06:05:17;;;;;;;34.20;18.43;;;;;;;16.81;89.01;101388.95;126316;1093;62219;-81
2021/06/06 06:07:44;;;;;;;38.00;21.80;;;;;;;16.77;89.20;101393.02;126733;1093;62137;-81
2021/06/06 06:10:19;;;;;;;33.73;19.23;;;;;;;16.73;89.54;101398.98;126722;1093;62234;-80
2021/06/06 06:12:46;;;;;;;32.38;19.48;;;;;;;16.69;89.73;101396.67;126785;1093;63006;-80
2021/06/06 06:15:14;;;;;;;29.90;16.50;;;;;;;16.67;89.76;101398.72;126662;1092;62373;-80
2021/06/06 06:17:42;;;;;;;30.67;17.23;;;;;;;16.51;89.83;101377.61;126763;1093;62997;-81
2021/06/06 06:20:13;;;;;;;30.10;15.57;;;;;;;16.67;89.31;101401.41;126792;1093;63026;-80
2021/06/06 06:22:41;;;;;;;30.17;18.07;;;;;;;16.75;89.15;101392.39;126486;1093;62244;-81
2021/06/06 06:25:10;;;;;;;23.37;15.30;;;;;;;16.89;88.11;101390.61;126745;1093;62938;-80
2021/06/06 06:27:37;;;;;;;19.77;13.50;;;;;;;17.04;86.95;101399.36;126739;1093;63369;-81
2021/06/06 06:30:12;;;;;;;24.33;14.97;;;;;;;17.17;86.57;101393.21;126607;1093;62994;-81
2021/06/06 06:32:40;;;;;;;26.17;14.93;;;;;;;17.23;85.78;101402.28;126687;1093;66382;-80
2021/06/06 06:35:08;;;;;;;23.40;13.77;;;;;;;17.26;85.92;101383.95;126845;1093;62437;-80
2021/06/06 06:37:36;;;;;;;20.57;13.53;;;;;;;17.29;85.70;101390.75;126720;1092;63006;-81
2021/06/06 06:40:08;;;;;;;26.63;17.07;;;;;;;17.25;85.43;101392.19;126809;1093;62159;-80
2021/06/06 06:42:36;;;;;;;23.63;14.83;;;;;;;17.11;85.21;101400.20;126837;1093;62329;-80
2021/06/06 06:45:08;;;;;;;24.73;15.40;;;;;;;17.01;85.49;101415.82;126785;1092;62210;-79
2021/06/06 06:47:37;;;;;;;21.10;11.93;;;;;;;16.90;85.76;101414.54;126596;1092;62900;-80
2021/06/06 06:50:07;;;;;;;26.97;16.70;;;;;;;16.85;85.71;101398.24;126339;1093;62910;-80
2021/06/06 06:52:36;;;;;;;28.40;17.67;;;;;;;16.84;85.99;101401.94;126635;1093;62708;-80
2021/06/06 06:55:07;;;;;;;22.13;12.20;;;;;;;16.78;85.83;101405.38;126536;1093;63610;-80
2021/06/06 06:57:35;;;;;;;21.17;13.63;;;;;;;16.78;86.03;101399.20;126664;1093;63031;-82
2021/06/06 07:00:05;;;;;;;18.47;11.20;;;;;;;16.80;85.83;101397.14;127978;1092;62285;-82
2021/06/06 07:02:32;;;;;;;21.57;14.73;;;;;;;16.76;85.40;101406.60;128132;1093;62764;-81
2021/06/06 07:04:59;;;;;;;21.83;12.53;;;;;;;16.75;86.19;101407.64;127827;1092;64128;-82
2021/06/06 07:07:26;;;;;;;21.03;13.47;;;;;;;16.75;85.88;101410.32;127750;1092;62620;-82
2021/06/06 07:09:53;;;;;;;22.17;13.80;;;;;;;16.78;85.53;101420.63;127143;1093;63012;-81
2021/06/06 07:12:20;;;;;;;16.27;9.30;;;;;;;16.82;85.75;101411.20;126679;1092;62658;-82
2021/06/06 07:14:48;;;;;;;19.77;13.47;;;;;;;16.93;85.29;101418.67;126960;1092;62217;-81
2021/06/06 07:17:15;;;;;;;16.97;11.87;;;;;;;17.05;84.27;101425.12;126989;1093;62647;-82
2021/06/06 07:19:42;;;;;;;13.83;9.87;;;;;;;17.15;82.86;101431.95;127001;1091;63202;-81
2021/06/06 07:22:09;;;;;;;11.30;8.47;;;;;;;17.24;82.53;101425.41;126892;1092;62157;-82
2021/06/06 07:24:36;;;;;;;14.83;10.20;;;;;;;17.32;82.16;101417.19;126809;1092;62964;-81
2021/06/06 07:27:05;;;;;;;18.27;11.83;;;;;;;17.39;82.72;101418.02;126843;1093;62897;-81
2021/06/06 07:29:34;;;;;;;17.77;12.80;;;;;;;17.50;82.59;101416.59;126341;1093;62660;-81
2021/06/06 07:32:04;;;;;;;15.57;10.77;;;;;;;17.63;82.49;101423.84;127088;1093;62316;-82
2021/06/06 07:34:32;;;;;;;18.03;12.63;;;;;;;17.76;80.65;101415.80;126635;1092;62981;-82
2021/06/06 07:37:04;;;;;;;14.73;12.43;;;;;;;17.88;80.56;101416.88;126669;1093;62104;-81
2021/06/06 07:39:31;;;;;;;13.10;9.97;;;;;;;17.96;78.77;101423.07;126361;1093;62793;-81
2021/06/06 07:41:59;;;;;;;16.73;10.77;;;;;;;18.01;79.22;101415.24;126592;1093;62220;-81
2021/06/06 07:44:28;;;;;;;15.10;10.67;;;;;;;18.04;78.82;101425.55;126628;1093;62937;-81
2021/06/06 07:46:55;;;;;;;10.77;7.13;;;;;;;18.12;78.89;101425.35;127031;1092;62929;-82
2021/06/06 07:49:23;;;;;;;12.03;7.63;;;;;;;18.17;79.09;101422.89;127473;1093;62613;-81
2021/06/06 07:51:51;;;;;;;12.07;8.57;;;;;;;18.22;77.91;101428.45;126464;1093;62903;-82
2021/06/06 07:54:18;;;;;;;12.60;9.43;;;;;;;18.24;78.55;101418.33;126297;1093;62985;-81
2021/06/06 07:56:45;;;;;;;15.17;10.77;;;;;;;18.23;77.53;101422.03;126669;1093;62870;-81
2021/06/06 07:59:12;;;;;;;14.65;10.85;;;;;;;18.20;77.89;101427.83;126328;1092;63076;-81
2021/06/06 08:01:41;;;;;;;15.93;10.73;;;;;;;18.26;77.94;101421.63;126748;1093;62945;-81
2021/06/06 08:04:08;;;;;;;12.17;8.33;;;;;;;18.32;78.03;101422.67;126525;1093;62970;-81
2021/06/06 08:06:35;;;;;;;14.23;9.87;;;;;;;18.38;77.90;101426.36;126561;1093;62932;-81
2021/06/06 08:09:04;;;;;;;14.23;10.00;;;;;;;18.43;78.00;101422.02;126629;1092;62952;-82
2021/06/06 08:11:32;;;;;;;12.37;8.57;;;;;;;18.44;77.51;101426.34;126678;1093;62939;-82
2021/06/06 08:13:59;;;;;;;13.07;8.90;;;;;;;18.38;76.86;101426.36;126697;1093;63006;-82
2021/06/06 08:16:27;;;;;;;17.77;10.60;;;;;;;18.29;76.70;101423.89;126562;1093;62738;-82
2021/06/06 08:18:54;;;;;;;12.67;8.93;;;;;;;18.22;77.47;101425.77;126434;1093;64411;-82
2021/06/06 08:21:27;;;;;;;16.30;10.73;;;;;;;18.18;78.37;101421.84;126592;1093;63002;-81
2021/06/06 08:23:55;;;;;;;15.97;9.77;;;;;;;18.16;77.78;101423.91;126173;1092;62952;-81
2021/06/06 08:26:24;;;;;;;14.53;10.70;;;;;;;18.14;78.12;101432.16;126280;1092;63003;-82
2021/06/06 08:28:53;;;;;;;14.83;10.47;;;;;;;18.18;78.38;101426.39;126690;1093;63009;-81
2021/06/06 08:31:27;;;;;;;11.80;9.10;;;;;;;18.25;78.60;101422.65;126513;1093;62336;-81
2021/06/06 08:33:54;;;;;;;10.85;7.55;;;;;;;18.30;76.61;101428.24;126245;1093;62467;-81
2021/06/06 08:36:29;;;;;;;10.83;8.27;;;;;;;18.30;77.04;101425.55;126285;1093;62740;-81
2021/06/06 08:38:58;;;;;;;9.13;7.37;;;;;;;18.25;76.76;101428.02;126439;1093;62964;-77
2021/06/06 08:41:33;;;;;;;12.97;9.93;;;;;;;18.26;77.46;101423.50;126382;1093;63728;-75
2021/06/06 08:44:09;;;;;;;11.67;7.63;;;;;;;18.29;77.57;101425.75;126395;1093;62894;-76
2021/06/06 08:46:46;;;;;;;10.40;7.67;;;;;;;18.30;77.37;101424.73;126324;1093;63000;-76
2021/06/06 08:49:14;;;;;;;12.00;8.20;;;;;;;18.28;76.87;101427.63;126201;1093;62942;-75
2021/06/06 08:51:50;;;;;;;9.73;6.77;;;;;;;18.22;76.26;101438.38;126248;1093;62907;-76
2021/06/06 08:54:32;;;;;;;7.83;5.77;;;;;;;18.13;76.71;101435.08;126230;1093;63115;-76
2021/06/06 08:57:05;;;;;;;9.90;7.53;;;;;;;18.01;77.13;101437.54;126266;1093;62721;-76
2021/06/06 08:59:43;;;;;;;12.77;9.40;;;;;;;17.95;77.89;101438.36;126218;1093;62999;-76
2021/06/06 09:02:25;;;;;;;10.47;7.40;;;;;;;17.89;78.38;101439.17;126279;1093;62900;-77
2021/06/06 09:04:52;;;;;;;10.37;7.60;;;;;;;17.85;78.61;101438.78;126277;1093;62900;-76
2021/06/06 09:07:29;;;;;;;17.17;9.90;;;;;;;17.76;79.32;101450.69;126318;1093;62999;-76
2021/06/06 09:10:07;;;;;;;14.03;10.67;;;;;;;17.70;80.04;101456.87;126509;1092;62184;-76
2021/06/06 09:12:34;;;;;;;13.17;9.77;;;;;;;17.62;80.53;101454.41;126467;1093;62026;-76
2021/06/06 09:15:04;;;;;;;11.47;8.30;;;;;;;17.55;81.09;101453.54;126487;1093;62948;-76
2021/06/06 09:17:37;;;;;;;13.63;10.83;;;;;;;17.50;81.22;101457.66;126453;1093;62197;-76
2021/06/06 09:20:21;;;;;;;13.63;10.03;;;;;;;17.48;81.77;101459.70;126373;1093;64066;-76
2021/06/06 09:22:48;;;;;;;14.47;9.63;;;;;;;17.51;81.31;101453.11;126357;1093;63029;-76
2021/06/06 09:25:33;;;;;;;13.97;9.67;;;;;;;17.58;81.46;101450.47;126395;1093;62257;-76
2021/06/06 09:28:18;;;;;;;12.97;10.20;;;;;;;17.65;81.04;101457.48;126397;1093;62453;-76
2021/06/06 09:31:02;;;;;;;13.17;9.20;;;;;;;17.72;80.57;101458.34;126513;1093;63078;-77
2021/06/06 09:33:51;;;;;;;14.63;9.37;;;;;;;17.82;80.78;101463.33;126482;1093;63007;-76
2021/06/06 09:36:26;;;;;;;13.57;10.03;;;;;;;17.98;79.75;101463.96;126293;1093;62370;-77
2021/06/06 09:39:06;;;;;;;15.47;10.03;;;;;;;18.12;79.35;101455.70;126331;1093;62957;-74
2021/06/06 09:41:51;;;;;;;13.43;9.60;;;;;;;18.34;78.90;101455.52;126340;1093;62894;-73
2021/06/06 09:44:29;;;;;;;12.83;9.23;;;;;;;18.61;78.33;101453.60;126327;1093;64484;-74
2021/06/06 09:47:05;;;;;;;12.23;9.43;;;;;;;18.90;77.51;101457.70;126560;1093;62861;-74
2021/06/06 09:49:35;;;;;;;12.07;8.73;;;;;;;19.02;75.53;101454.34;126200;1093;62961;-74
2021/06/06 09:52:29;;;;;;;12.53;10.00;;;;;;;19.00;75.19;101461.80;126006;1093;62942;-74
2021/06/06 09:55:10;;;;;;;10.33;8.30;;;;;;;19.00;75.43;101462.65;126330;1093;63040;-75
2021/06/06 09:57:42;;;;;;;13.37;9.63;;;;;;;19.05;75.42;101453.94;126012;1093;62971;-74
2021/06/06 10:00:18;;;;;;;10.87;8.93;;;;;;;19.14;74.36;101458.03;126325;1093;62938;-75
2021/06/06 10:03:16;;;;;;;11.90;8.75;;;;;;;19.37;73.88;101462.90;126222;1093;63043;-74
2021/06/06 10:05:43;;;;;;;14.80;9.75;;;;;;;19.66;72.75;101460.69;126206;1093;62881;-74
2021/06/06 10:08:28;;;;;;;14.83;9.20;;;;;;;19.83;70.56;101461.84;126194;1093;63031;-75
2021/06/06 10:11:09;;;;;;;11.00;8.80;;;;;;;19.89;70.40;101458.28;126339;1093;62973;-75
2021/06/06 10:13:41;;;;;;;13.40;10.03;;;;;;;20.04;72.14;101465.20;125991;1093;64331;-76
2021/06/06 10:16:12;;;;;;;11.20;8.47;;;;;;;19.95;69.40;101460.10;126193;1093;62939;-75
2021/06/06 10:18:55;;;;;;;10.93;8.30;;;;;;;19.78;69.99;101464.34;126477;1093;62215;-75
2021/06/06 10:21:27;;;;;;;11.65;9.30;;;;;;;19.62;70.49;101467.55;127044;1093;62919;-76
2021/06/06 10:23:58;;;;;;;11.17;8.40;;;;;;;19.52;71.58;101476.89;126376;1093;62419;-75
2021/06/06 10:26:33;;;;;;;12.30;9.00;;;;;;;19.44;72.18;101474.44;126664;1092;63003;-75
2021/06/06 10:29:07;;;;;;;11.87;8.90;;;;;;;19.32;72.92;101482.38;126350;1092;63045;-75
2021/06/06 10:31:41;;;;;;;9.50;7.05;;;;;;;19.12;73.30;101474.38;126368;1093;62695;-75
2021/06/06 10:34:21;;;;;;;9.93;7.93;;;;;;;18.85;74.24;101476.34;126267;1093;62981;-74
2021/06/06 10:36:48;;;;;;;11.07;9.17;;;;;;;18.61;75.37;101475.09;126270;1093;62882;-75
2021/06/06 10:39:19;;;;;;;12.17;8.70;;;;;;;18.44;76.39;101479.27;126252;1093;63104;-75
2021/06/06 10:41:58;;;;;;;13.03;9.27;;;;;;;18.29;77.34;101480.30;126285;1093;62221;-76
2021/06/06 10:44:38;;;;;;;14.10;11.33;;;;;;;18.27;77.87;101479.67;126394;1093;62183;-74
2021/06/06 10:47:15;;;;;;;11.87;7.60;;;;;;;18.21;77.61;101485.89;126332;1093;62955;-75
2021/06/06 10:49:53;;;;;;;11.73;8.00;;;;;;;18.22;77.84;101492.09;126646;1093;62896;-75
2021/06/06 10:52:32;;;;;;;11.53;8.27;;;;;;;18.18;78.33;101494.34;127755;1092;62936;-75
2021/06/06 10:55:25;;;;;;;12.20;9.30;;;;;;;18.10;78.44;101497.23;127917;1092;62197;-75
2021/06/06 10:57:52;;;;;;;15.57;11.90;;;;;;;18.07;78.29;101494.97;128022;1093;62150;-75
2021/06/06 11:00:34;;;;;;;10.63;8.67;;;;;;;18.01;78.85;101493.09;127900;1093;62178;-75
2021/06/06 11:03:24;;;;;;;12.53;9.23;;;;;;;17.91;79.30;101497.02;127873;1093;62059;-75
2021/06/06 11:05:54;;;;;;;13.70;9.17;;;;;;;17.90;79.73;101499.90;128247;1092;62458;-75
2021/06/06 11:08:27;;;;;;;14.70;10.93;;;;;;;17.91;79.72;101483.59;127856;1093;61778;-75
2021/06/06 11:11:20;;;;;;;16.83;11.90;;;;;;;17.95;79.30;101501.97;128207;1093;62711;-75
2021/06/06 11:13:51;;;;;;;14.77;9.87;;;;;;;17.92;79.51;101501.34;128270;1092;62162;-75
2021/06/06 11:16:18;;;;;;;13.23;9.30;;;;;;;17.89;79.73;101504.45;126922;1092;62872;-75
2021/06/06 11:18:54;;;;;;;14.97;11.13;;;;;;;17.85;79.92;101497.83;126435;1092;63626;-74
2021/06/06 11:21:39;;;;;;;15.07;9.00;;;;;;;17.83;80.21;101505.25;126487;1093;64194;-75
2021/06/06 11:24:20;;;;;;;14.93;10.23;;;;;;;17.80;80.24;101500.24;126138;1092;63582;-74